Time;durP1;ratioP1;P1;durP2;ratioP2;P2;SDS_P1;SDS_P2;PMS_P1;PMS_P2;Temp;Humidity;BMP_temperature;BMP_pressure;BME280_temperature;BME280_humidity;BME280_pressure;Samples;Min_cycle;Max_cycle;Signal;HPM_P1;HPM_P2
2024/01/10 00:00:16;;;;;;;48.13;24.20;;;-4.20;16.70;;;;;;5028007;28;20594;-67
2024/01/10 00:02:43;;;;;;;44.90;23.00;;;-4.20;16.70;;;;;;5029479;28;20538;-67
2024/01/10 00:05:10;;;;;;;37.43;21.27;;;-4.20;16.60;;;;;;5031960;28;20457;-67
2024/01/10 00:07:37;;;;;;;44.53;25.13;;;-4.20;16.60;;;;;;5029924;28;20478;-68
2024/01/10 00:10:04;;;;;;;55.10;25.97;;;-4.10;16.60;;;;;;5031943;28;20496;-67
2024/01/10 00:12:35;;;;;;;40.93;23.07;;;-4.10;16.60;;;;;;5030892;28;20530;-67
2024/01/10 00:15:03;;;;;;;47.43;26.20;;;-4.10;16.50;;;;;;5030721;28;20459;-68
2024/01/10 00:17:30;;;;;;;45.77;27.97;;;-4.00;16.50;;;;;;5029364;28;20479;-67
2024/01/10 00:19:57;;;;;;;51.67;26.87;;;-4.00;16.40;;;;;;5028925;28;20537;-67
2024/01/10 00:22:24;;;;;;;43.17;22.30;;;-4.00;16.40;;;;;;5028187;28;20550;-67
2024/01/10 00:24:51;;;;;;;40.93;22.60;;;-4.00;16.30;;;;;;5032405;28;20466;-67
2024/01/10 00:27:18;;;;;;;40.53;22.23;;;-4.00;16.30;;;;;;5030658;28;20489;-68
2024/01/10 00:29:46;;;;;;;44.80;25.30;;;-4.00;16.40;;;;;;5034205;28;20860;-67
2024/01/10 00:32:13;;;;;;;42.60;22.63;;;-4.00;16.40;;;;;;5030136;28;21201;-67
2024/01/10 00:34:39;;;;;;;39.27;22.60;;;-4.00;16.50;;;;;;5026092;28;20459;-67
2024/01/10 00:37:06;;;;;;;50.97;23.63;;;-4.00;16.40;;;;;;5026094;28;20578;-67
2024/01/10 00:39:33;;;;;;;42.07;22.47;;;-4.00;16.40;;;;;;5028630;28;20462;-68
2024/01/10 00:42:00;;;;;;;37.47;22.20;;;-3.90;16.40;;;;;;5029321;28;20504;-68
2024/01/10 00:44:27;;;;;;;45.13;24.00;;;-4.00;16.60;;;;;;5026667;28;20613;-68
2024/01/10 00:46:55;;;;;;;43.87;25.33;;;-4.00;16.50;;;;;;5026591;28;20504;-68
2024/01/10 00:49:22;;;;;;;43.57;25.47;;;-3.90;16.50;;;;;;5025551;28;21275;-67
2024/01/10 00:51:48;;;;;;;42.50;24.70;;;-3.90;16.40;;;;;;5025673;28;20505;-67
2024/01/10 00:54:15;;;;;;;48.97;26.57;;;-4.00;16.30;;;;;;5027340;28;20469;-67
2024/01/10 00:56:42;;;;;;;38.87;21.37;;;-3.90;16.50;;;;;;5031405;28;20471;-68
2024/01/10 00:59:09;;;;;;;40.03;23.07;;;-3.90;16.50;;;;;;5028917;28;20473;-67
2024/01/10 01:01:36;;;;;;;40.67;22.43;;;-4.00;16.40;;;;;;5026985;28;20470;-68
2024/01/10 01:04:05;;;;;;;43.57;22.80;;;-4.00;16.40;;;;;;5031262;28;20485;-68
2024/01/10 01:06:31;;;;;;;44.33;23.77;;;-4.00;16.40;;;;;;5029657;28;20561;-68
2024/01/10 01:08:58;;;;;;;40.43;25.07;;;-4.00;16.40;;;;;;5029089;28;20458;-68
2024/01/10 01:11:25;;;;;;;43.67;23.80;;;-3.90;16.40;;;;;;5030433;28;20458;-68
2024/01/10 01:13:52;;;;;;;35.33;22.10;;;-3.90;16.50;;;;;;5035363;28;20457;-68
2024/01/10 01:16:19;;;;;;;38.27;22.00;;;-4.00;16.60;;;;;;5029011;28;20554;-68
2024/01/10 01:18:46;;;;;;;39.87;21.60;;;-4.00;16.60;;;;;;5033127;28;20542;-68
2024/01/10 01:21:14;;;;;;;40.10;22.50;;;-4.00;16.70;;;;;;5027534;28;20830;-68
2024/01/10 01:23:41;;;;;;;44.37;24.20;;;-4.00;17.00;;;;;;5030915;28;20478;-68
2024/01/10 01:26:08;;;;;;;41.77;24.00;;;-4.00;17.00;;;;;;5034902;28;20481;-68
2024/01/10 01:28:35;;;;;;;41.13;22.47;;;-3.90;16.90;;;;;;5031102;28;20461;-68
2024/01/10 01:31:02;;;;;;;41.70;23.60;;;-3.90;16.80;;;;;;5034827;28;20510;-68
2024/01/10 01:33:28;;;;;;;39.57;23.00;;;-3.80;16.80;;;;;;5029954;28;20482;-68
2024/01/10 01:35:55;;;;;;;46.73;25.10;;;-3.80;16.80;;;;;;5031830;28;20549;-67
2024/01/10 01:38:23;;;;;;;43.00;21.83;;;-3.80;16.70;;;;;;5026783;28;20454;-68
2024/01/10 01:40:50;;;;;;;38.37;21.73;;;-3.70;16.80;;;;;;5035659;28;20943;-68
2024/01/10 01:43:20;;;;;;;38.90;23.60;;;-3.70;16.80;;;;;;5031349;28;20461;-68
2024/01/10 01:45:47;;;;;;;45.70;24.40;;;-3.70;17.20;;;;;;5029949;28;20528;-68
2024/01/10 01:48:15;;;;;;;46.50;25.30;;;-3.70;17.30;;;;;;5029399;28;20482;-68
2024/01/10 01:50:41;;;;;;;47.97;25.27;;;-3.70;17.20;;;;;;5028812;28;20578;-68
2024/01/10 01:53:09;;;;;;;42.30;24.33;;;-3.60;17.10;;;;;;5032931;28;20466;-67
2024/01/10 01:55:37;;;;;;;46.47;23.37;;;-3.60;17.10;;;;;;5031205;28;20470;-68
2024/01/10 01:58:05;;;;;;;43.40;25.73;;;-3.60;17.20;;;;;;5029180;28;21080;-68
2024/01/10 02:00:31;;;;;;;40.80;24.40;;;-3.60;17.20;;;;;;5029310;28;20469;-68
2024/01/10 02:03:00;;;;;;;48.90;27.63;;;-3.60;17.20;;;;;;5030282;28;20557;-68
2024/01/10 02:05:27;;;;;;;41.87;23.53;;;-3.50;17.00;;;;;;5031257;28;20459;-68
2024/01/10 02:07:55;;;;;;;47.80;24.57;;;-3.50;17.00;;;;;;5034337;28;20577;-68
2024/01/10 02:10:22;;;;;;;41.93;22.77;;;-3.50;17.00;;;;;;5033025;28;21029;-68
2024/01/10 02:12:50;;;;;;;40.20;23.83;;;-3.50;17.00;;;;;;5030572;28;20458;-68
2024/01/10 02:15:17;;;;;;;44.47;23.27;;;-3.50;17.00;;;;;;5031948;28;20455;-67
2024/01/10 02:17:44;;;;;;;46.40;23.10;;;-3.50;17.20;;;;;;5028163;28;20474;-67
2024/01/10 02:20:12;;;;;;;44.80;23.27;;;-3.50;17.30;;;;;;5026503;28;20462;-68
2024/01/10 02:22:39;;;;;;;47.70;22.97;;;-3.60;17.40;;;;;;5030440;28;20454;-68
2024/01/10 02:25:08;;;;;;;43.10;24.17;;;-3.70;17.60;;;;;;5035559;28;20460;-68
2024/01/10 02:27:37;;;;;;;46.40;24.90;;;-3.70;17.60;;;;;;5029732;28;20486;-67
2024/01/10 02:30:05;;;;;;;44.50;23.53;;;-3.70;17.60;;;;;;5034220;28;20482;-68
2024/01/10 02:32:32;;;;;;;44.77;24.30;;;-3.70;17.60;;;;;;5030333;28;20553;-68
2024/01/10 02:34:59;;;;;;;45.67;22.90;;;-3.70;17.70;;;;;;5032538;28;20546;-68
2024/01/10 02:37:26;;;;;;;44.67;26.00;;;-3.70;17.70;;;;;;5029177;28;20499;-68
2024/01/10 02:39:53;;;;;;;38.93;22.70;;;-3.70;17.70;;;;;;5026032;28;20477;-68
2024/01/10 02:42:21;;;;;;;43.93;22.33;;;-3.70;17.70;;;;;;5028053;28;20537;-68
2024/01/10 02:44:48;;;;;;;46.53;24.10;;;-3.70;17.80;;;;;;5024008;28;20550;-68
2024/01/10 02:47:16;;;;;;;41.33;22.70;;;-3.70;17.90;;;;;;5025808;28;20483;-68
2024/01/10 02:49:42;;;;;;;45.63;25.57;;;-3.70;17.90;;;;;;5024643;28;20490;-68
2024/01/10 02:52:08;;;;;;;45.00;24.97;;;-3.70;17.90;;;;;;5025956;28;20458;-68
2024/01/10 02:54:35;;;;;;;41.00;24.47;;;-3.70;17.90;;;;;;5028342;28;21071;-68
2024/01/10 02:57:02;;;;;;;46.33;26.07;;;-3.70;17.90;;;;;;5028055;28;20482;-68
2024/01/10 02:59:30;;;;;;;41.07;23.27;;;-3.70;17.80;;;;;;5028539;28;20554;-68
2024/01/10 03:01:57;;;;;;;41.63;23.67;;;-3.70;17.80;;;;;;5024977;28;20473;-68
2024/01/10 03:04:24;;;;;;;42.00;23.27;;;-3.70;17.70;;;;;;5027864;28;20467;-68
2024/01/10 03:06:51;;;;;;;37.83;22.77;;;-3.60;17.70;;;;;;5025655;28;20935;-68
2024/01/10 03:09:18;;;;;;;47.27;24.73;;;-3.60;17.70;;;;;;5026875;28;20455;-68
2024/01/10 03:11:44;;;;;;;48.07;23.57;;;-3.60;17.60;;;;;;5031106;28;20463;-68
2024/01/10 03:14:12;;;;;;;45.50;24.90;;;-3.60;17.70;;;;;;5028241;28;20466;-68
2024/01/10 03:16:40;;;;;;;41.07;21.60;;;-3.70;18.20;;;;;;5028859;28;20485;-68
2024/01/10 03:19:07;;;;;;;39.50;23.53;;;-3.70;18.10;;;;;;5030698;28;20498;-68
2024/01/10 03:21:34;;;;;;;52.07;23.93;;;-3.70;18.20;;;;;;5034190;28;20553;-68
2024/01/10 03:24:02;;;;;;;50.77;27.30;;;-3.70;18.70;;;;;;5028591;28;20497;-68
2024/01/10 03:26:30;;;;;;;46.27;23.70;;;-3.70;18.20;;;;;;5028160;28;20552;-68
2024/01/10 03:28:57;;;;;;;38.30;23.30;;;-3.70;18.20;;;;;;5033803;28;20488;-68
2024/01/10 03:31:24;;;;;;;46.80;25.83;;;-3.70;18.10;;;;;;5029877;28;20545;-68
2024/01/10 03:33:52;;;;;;;41.73;23.20;;;-3.70;18.20;;;;;;5031585;28;20554;-67
2024/01/10 03:36:19;;;;;;;46.97;24.77;;;-3.70;18.30;;;;;;5034397;28;20475;-68
2024/01/10 03:38:46;;;;;;;41.30;23.57;;;-3.60;18.10;;;;;;5031855;28;20458;-68
2024/01/10 03:41:14;;;;;;;47.87;26.93;;;-3.50;18.10;;;;;;5022590;28;20459;-68
2024/01/10 03:43:41;;;;;;;43.97;25.13;;;-3.60;18.20;;;;;;5029895;28;20990;-68
2024/01/10 03:46:08;;;;;;;44.90;23.70;;;-3.60;18.30;;;;;;5028530;28;20911;-68
2024/01/10 03:48:35;;;;;;;47.10;24.07;;;-3.50;18.30;;;;;;5026595;28;20545;-67
2024/01/10 03:51:04;;;;;;;41.40;22.27;;;-3.50;18.30;;;;;;5027162;28;20573;-68
2024/01/10 03:53:31;;;;;;;40.93;24.60;;;-3.50;18.30;;;;;;5021676;28;20542;-68
2024/01/10 03:55:58;;;;;;;43.83;25.43;;;-3.50;18.20;;;;;;5027717;28;20913;-68
2024/01/10 03:58:26;;;;;;;42.90;24.03;;;-3.40;18.10;;;;;;5027194;28;20455;-68
2024/01/10 04:00:53;;;;;;;41.60;22.63;;;-3.40;18.10;;;;;;5024372;28;20990;-68
2024/01/10 04:03:20;;;;;;;41.17;22.57;;;-3.50;18.20;;;;;;5024931;28;20467;-68
2024/01/10 04:05:46;;;;;;;42.27;22.67;;;-3.40;18.30;;;;;;5034040;28;20464;-68
2024/01/10 04:08:15;;;;;;;40.20;22.13;;;-3.40;18.80;;;;;;5026921;28;20910;-68
2024/01/10 04:10:42;;;;;;;39.37;21.63;;;-3.40;18.20;;;;;;5027235;28;20489;-68
2024/01/10 04:13:09;;;;;;;37.50;21.80;;;-3.40;18.30;;;;;;5027580;28;20544;-68
2024/01/10 04:15:35;;;;;;;37.13;23.00;;;-3.40;18.40;;;;;;5025159;28;20474;-68
2024/01/10 04:18:02;;;;;;;45.80;25.10;;;-3.40;19.00;;;;;;5024818;28;20502;-68
2024/01/10 04:20:29;;;;;;;40.77;22.50;;;-3.50;18.70;;;;;;5027804;28;20487;-68
2024/01/10 04:22:56;;;;;;;45.13;23.60;;;-3.50;18.80;;;;;;5024646;28;20466;-68
2024/01/10 04:25:24;;;;;;;43.03;21.73;;;-3.50;18.80;;;;;;5026236;28;20581;-68
2024/01/10 04:27:51;;;;;;;45.53;21.97;;;-3.50;18.80;;;;;;5027025;28;20489;-68
2024/01/10 04:30:18;;;;;;;46.03;24.60;;;-3.50;18.80;;;;;;5024719;28;20479;-68
2024/01/10 04:32:45;;;;;;;44.10;23.40;;;-3.50;18.80;;;;;;5025933;28;20467;-68
2024/01/10 04:35:12;;;;;;;41.97;22.27;;;-3.50;18.80;;;;;;5024738;28;20474;-67
2024/01/10 04:37:39;;;;;;;43.43;23.13;;;-3.50;18.90;;;;;;5022548;28;20589;-67
2024/01/10 04:40:07;;;;;;;46.80;24.10;;;-3.50;18.80;;;;;;5024361;28;20469;-67
2024/01/10 04:42:35;;;;;;;40.83;22.83;;;-3.40;18.70;;;;;;5027497;28;21039;-67
2024/01/10 04:45:02;;;;;;;48.07;22.97;;;-3.30;18.60;;;;;;5026298;28;20590;-67
2024/01/10 04:47:29;;;;;;;36.37;21.80;;;-3.30;18.60;;;;;;5026356;28;20500;-67
2024/01/10 04:49:57;;;;;;;41.80;20.57;;;-3.30;18.50;;;;;;5023291;28;20463;-67
2024/01/10 04:52:23;;;;;;;42.37;23.67;;;-3.20;18.30;;;;;;5026906;28;20470;-67
2024/01/10 04:54:50;;;;;;;40.47;22.30;;;-3.30;18.30;;;;;;5025537;28;20922;-67
2024/01/10 04:57:17;;;;;;;42.13;22.00;;;-3.20;18.10;;;;;;5024945;28;20483;-68
2024/01/10 04:59:45;;;;;;;41.30;22.73;;;-3.20;18.10;;;;;;5025928;28;20597;-68
2024/01/10 05:02:12;;;;;;;39.97;22.47;;;-3.20;18.10;;;;;;5027419;28;20483;-68
2024/01/10 05:04:39;;;;;;;45.13;23.03;;;-3.20;18.10;;;;;;5034631;28;20457;-68
2024/01/10 05:07:06;;;;;;;42.73;23.00;;;-3.20;18.20;;;;;;5028403;28;21004;-68
2024/01/10 05:09:33;;;;;;;45.47;23.43;;;-3.20;18.20;;;;;;5029952;28;20494;-68
2024/01/10 05:12:00;;;;;;;43.30;23.67;;;-3.20;18.10;;;;;;5033016;28;20926;-68
2024/01/10 05:14:27;;;;;;;41.30;24.27;;;-3.20;18.10;;;;;;5032495;28;20574;-68
2024/01/10 05:16:55;;;;;;;46.73;25.03;;;-3.20;18.20;;;;;;5031553;28;20531;-68
2024/01/10 05:19:22;;;;;;;45.27;22.50;;;-3.10;18.10;;;;;;5031545;28;20559;-68
2024/01/10 05:21:49;;;;;;;46.37;24.27;;;-3.10;18.10;;;;;;5029790;28;20497;-68
2024/01/10 05:24:16;;;;;;;45.60;23.60;;;-3.10;18.00;;;;;;5036144;28;20486;-68
2024/01/10 05:26:42;;;;;;;43.37;23.27;;;-3.00;18.10;;;;;;5030124;28;20480;-68
2024/01/10 05:29:09;;;;;;;46.07;24.10;;;-3.00;18.00;;;;;;5035972;28;20447;-68
2024/01/10 05:31:36;;;;;;;44.13;24.00;;;-3.00;18.10;;;;;;5027775;28;20505;-68
2024/01/10 05:34:05;;;;;;;43.43;21.63;;;-2.90;18.00;;;;;;5029535;28;20473;-68
2024/01/10 05:36:33;;;;;;;48.10;23.57;;;-2.90;18.00;;;;;;5029748;28;20482;-67
2024/01/10 05:39:00;;;;;;;43.00;23.30;;;-2.90;17.90;;;;;;5033565;28;20990;-68
2024/01/10 05:41:27;;;;;;;39.70;22.63;;;-2.90;17.90;;;;;;5035612;28;20461;-68
2024/01/10 05:43:54;;;;;;;44.03;23.87;;;-2.90;18.00;;;;;;5035917;28;20464;-68
2024/01/10 05:46:21;;;;;;;50.50;24.83;;;-2.90;18.00;;;;;;5038949;28;20487;-68
2024/01/10 05:48:48;;;;;;;41.10;22.13;;;-2.90;17.90;;;;;;5026762;28;20458;-68
2024/01/10 05:51:17;;;;;;;46.17;25.23;;;-2.90;18.00;;;;;;5028806;28;20490;-68
2024/01/10 05:53:43;;;;;;;39.23;20.97;;;-2.90;17.90;;;;;;5030425;28;20466;-68
2024/01/10 05:56:10;;;;;;;43.27;23.93;;;-2.90;17.80;;;;;;5030659;28;20454;-68
2024/01/10 05:58:37;;;;;;;45.13;25.30;;;-2.90;17.80;;;;;;5025632;28;20465;-68
2024/01/10 06:01:04;;;;;;;51.03;25.47;;;-2.90;17.90;;;;;;5031853;28;21193;-68
2024/01/10 06:03:31;;;;;;;43.40;23.27;;;-2.90;17.90;;;;;;5024709;28;20459;-68
2024/01/10 06:05:58;;;;;;;47.50;25.53;;;-2.90;17.90;;;;;;5026890;28;20469;-68
2024/01/10 06:08:28;;;;;;;46.30;24.70;;;-2.90;17.90;;;;;;5029222;28;20907;-68
2024/01/10 06:10:55;;;;;;;42.20;22.03;;;-2.90;17.90;;;;;;5029098;28;20491;-68
2024/01/10 06:13:22;;;;;;;43.10;22.93;;;-2.90;18.00;;;;;;5028046;28;20963;-68
2024/01/10 06:15:48;;;;;;;41.23;22.67;;;-2.90;18.00;;;;;;5034971;28;20465;-68
2024/01/10 06:18:15;;;;;;;43.53;23.83;;;-2.90;18.00;;;;;;5033850;28;20488;-68
2024/01/10 06:20:42;;;;;;;47.53;24.30;;;-2.80;17.90;;;;;;5031057;28;20451;-68
2024/01/10 06:23:09;;;;;;;44.10;24.77;;;-2.80;17.70;;;;;;5027895;28;20477;-68
2024/01/10 06:25:38;;;;;;;42.90;23.70;;;-2.70;17.70;;;;;;5030866;28;20463;-68
2024/01/10 06:28:05;;;;;;;48.20;23.00;;;-2.70;17.60;;;;;;5031696;28;21043;-68
2024/01/10 06:30:32;;;;;;;45.63;23.30;;;-2.70;17.70;;;;;;5030330;28;20474;-68
2024/01/10 06:32:59;;;;;;;41.13;25.00;;;-2.70;17.70;;;;;;5029936;28;20459;-68
2024/01/10 06:35:26;;;;;;;45.43;24.23;;;-2.70;17.80;;;;;;5029749;28;21127;-68
2024/01/10 06:37:53;;;;;;;43.83;24.10;;;-2.70;17.80;;;;;;5030085;28;20524;-68
2024/01/10 06:40:21;;;;;;;38.63;23.03;;;-2.70;17.70;;;;;;5029257;28;20459;-68
2024/01/10 06:42:49;;;;;;;47.43;24.30;;;-2.60;17.60;;;;;;5030321;28;20466;-68
2024/01/10 06:45:16;;;;;;;44.63;23.97;;;-2.70;17.60;;;;;;5029289;28;20457;-68
2024/01/10 06:47:43;;;;;;;46.80;24.57;;;-2.70;17.60;;;;;;5027178;28;20824;-68
2024/01/10 06:50:11;;;;;;;40.60;21.60;;;-2.70;17.60;;;;;;5029883;28;20450;-68
2024/01/10 06:52:38;;;;;;;38.57;22.00;;;-2.70;17.60;;;;;;5030973;28;20475;-68
2024/01/10 06:55:06;;;;;;;45.10;24.40;;;-2.70;17.50;;;;;;5030579;28;20462;-68
2024/01/10 06:57:33;;;;;;;56.83;30.07;;;-2.60;17.50;;;;;;5034635;28;20497;-68
2024/01/10 07:00:03;;;;;;;58.40;29.17;;;-2.60;17.60;;;;;;5033088;28;20454;-68
2024/01/10 07:02:32;;;;;;;50.50;24.63;;;-2.60;17.40;;;;;;5029871;28;20470;-68
2024/01/10 07:04:59;;;;;;;45.37;25.57;;;-2.50;17.50;;;;;;5043273;22;20571;-66
2024/01/10 07:07:25;;;;;;;45.97;24.10;;;-2.60;17.40;;;;;;5028846;28;20848;-66
2024/01/10 07:09:52;;;;;;;45.60;22.87;;;-2.60;17.50;;;;;;5032498;28;20461;-66
2024/01/10 07:12:19;;;;;;;42.27;22.57;;;-2.60;17.50;;;;;;5027553;28;20486;-66
2024/01/10 07:14:46;;;;;;;41.67;23.00;;;-2.60;17.60;;;;;;5027984;28;21008;-66
2024/01/10 07:17:14;;;;;;;46.07;23.43;;;-2.60;17.60;;;;;;5028581;28;20490;-66
2024/01/10 07:19:41;;;;;;;41.83;23.40;;;-2.60;17.60;;;;;;5030419;28;20459;-66
2024/01/10 07:22:10;;;;;;;41.93;23.13;;;-2.70;17.60;;;;;;5029802;28;20454;-66
2024/01/10 07:24:37;;;;;;;43.70;23.40;;;-2.60;17.50;;;;;;5029047;28;20463;-66
2024/01/10 07:27:03;;;;;;;46.77;24.67;;;-2.60;17.60;;;;;;5022728;28;20502;-66
2024/01/10 07:29:31;;;;;;;40.57;23.20;;;-2.60;17.60;;;;;;5028945;28;20543;-66
2024/01/10 07:31:58;;;;;;;46.87;26.30;;;-2.60;17.60;;;;;;5025227;28;20471;-66
2024/01/10 07:34:26;;;;;;;44.57;24.07;;;-2.60;17.60;;;;;;5025562;28;20478;-66
2024/01/10 07:36:54;;;;;;;45.90;24.30;;;-2.60;17.50;;;;;;5023942;28;20478;-66
2024/01/10 07:39:20;;;;;;;47.80;23.27;;;-2.50;17.60;;;;;;5023805;28;20505;-67
2024/01/10 07:41:49;;;;;;;39.40;21.73;;;-2.50;17.60;;;;;;5026934;28;20462;-65
2024/01/10 07:44:16;;;;;;;44.27;22.43;;;-2.40;17.50;;;;;;5029694;28;20530;-67
2024/01/10 07:46:43;;;;;;;47.33;24.60;;;-2.40;17.40;;;;;;5025620;28;20481;-67
2024/01/10 07:49:10;;;;;;;42.27;22.67;;;-2.30;17.40;;;;;;5029437;28;20469;-66
2024/01/10 07:51:38;;;;;;;41.37;23.63;;;-2.30;17.40;;;;;;5028402;28;20482;-66
2024/01/10 07:54:05;;;;;;;41.60;24.00;;;-2.20;17.40;;;;;;5029676;28;20461;-67
2024/01/10 07:56:32;;;;;;;40.40;22.37;;;-2.10;17.30;;;;;;5030828;28;20489;-66
2024/01/10 07:58:59;;;;;;;39.90;22.63;;;-2.00;17.10;;;;;;5023949;28;20463;-66
2024/01/10 08:01:25;;;;;;;44.60;26.20;;;-1.80;17.10;;;;;;5033668;28;20516;-66
2024/01/10 08:03:52;;;;;;;39.27;22.93;;;-1.60;16.90;;;;;;5025417;28;20459;-65
2024/01/10 08:06:19;;;;;;;39.27;24.93;;;-1.40;16.60;;;;;;5029264;28;20576;-66
2024/01/10 08:08:48;;;;;;;44.03;23.37;;;-1.20;16.20;;;;;;5026821;28;20474;-67
2024/01/10 08:11:17;;;;;;;51.53;23.63;;;-1.20;15.80;;;;;;5029559;28;20479;-67
2024/01/10 08:13:44;;;;;;;38.20;22.20;;;-1.10;15.50;;;;;;5028994;28;20565;-66
2024/01/10 08:16:11;;;;;;;42.63;22.53;;;-1.10;15.40;;;;;;5030154;28;20573;-66
2024/01/10 08:18:38;;;;;;;45.30;24.73;;;-1.10;15.10;;;;;;5023967;28;20475;-67
2024/01/10 08:21:05;;;;;;;40.10;22.67;;;-1.10;15.00;;;;;;5020999;28;20542;-66
2024/01/10 08:23:32;;;;;;;42.37;26.23;;;-1.10;15.00;;;;;;5026770;28;20455;-66
2024/01/10 08:26:00;;;;;;;44.00;24.90;;;-1.00;15.00;;;;;;5024056;28;20542;-66
2024/01/10 08:28:27;;;;;;;45.90;25.07;;;-0.90;14.90;;;;;;5027583;28;20571;-66
2024/01/10 08:30:54;;;;;;;40.73;23.50;;;-0.80;14.70;;;;;;5026484;28;20517;-66
2024/01/10 08:33:21;;;;;;;43.73;25.80;;;-0.70;14.50;;;;;;5021054;28;20906;-66
2024/01/10 08:35:47;;;;;;;40.37;24.67;;;-0.60;14.30;;;;;;5027291;28;20459;-66
2024/01/10 08:38:14;;;;;;;42.80;24.10;;;-0.50;14.00;;;;;;5053087;28;20999;-66
2024/01/10 08:40:41;;;;;;;47.47;24.57;;;-0.40;13.70;;;;;;5052209;28;20439;-66
2024/01/10 08:43:09;;;;;;;51.63;26.73;;;-0.30;14.00;;;;;;5024057;28;20462;-65
2024/01/10 08:45:36;;;;;;;45.20;25.63;;;-0.20;13.40;;;;;;5019884;28;20461;-66
2024/01/10 08:48:04;;;;;;;45.37;25.30;;;-0.20;13.10;;;;;;5019557;28;20585;-66
2024/01/10 08:50:31;;;;;;;41.90;23.60;;;-0.20;13.10;;;;;;5024289;28;20459;-66
2024/01/10 08:52:58;;;;;;;43.93;23.43;;;-0.10;12.90;;;;;;5026980;28;20483;-65
2024/01/10 08:55:25;;;;;;;42.03;23.43;;;-0.10;12.80;;;;;;5022616;28;20470;-66
2024/01/10 08:57:51;;;;;;;47.77;25.50;;;0.00;12.60;;;;;;5023911;28;20850;-66
2024/01/10 09:00:20;;;;;;;43.07;24.67;;;0.00;12.40;;;;;;5025010;28;20451;-66
2024/01/10 09:02:47;;;;;;;49.47;24.73;;;0.10;12.40;;;;;;5020896;28;20870;-65
2024/01/10 09:05:13;;;;;;;43.60;24.80;;;0.10;12.60;;;;;;5023903;28;20813;-67
2024/01/10 09:07:42;;;;;;;44.00;25.37;;;0.10;12.00;;;;;;5024431;28;20474;-66
2024/01/10 09:10:09;;;;;;;41.60;23.43;;;0.20;12.00;;;;;;5018312;28;20826;-67
2024/01/10 09:12:36;;;;;;;45.50;25.90;;;0.40;12.00;;;;;;5020553;28;20484;-66
2024/01/10 09:15:03;;;;;;;39.23;24.33;;;0.50;11.90;;;;;;5025990;28;20459;-66
2024/01/10 09:17:31;;;;;;;44.10;22.50;;;0.60;11.50;;;;;;5021070;28;20881;-66
2024/01/10 09:19:58;;;;;;;40.23;22.90;;;0.70;11.30;;;;;;5023832;28;20450;-67
2024/01/10 09:22:25;;;;;;;47.00;23.23;;;0.80;11.10;;;;;;5022895;28;20459;-67
2024/01/10 09:24:52;;;;;;;41.93;23.43;;;1.00;10.90;;;;;;5023128;28;20469;-67
2024/01/10 09:27:19;;;;;;;41.83;23.60;;;1.30;10.80;;;;;;5021516;28;21037;-66
2024/01/10 09:29:46;;;;;;;49.60;26.07;;;1.40;10.40;;;;;;5026504;28;20533;-66
2024/01/10 09:32:12;;;;;;;49.50;28.70;;;1.50;10.20;;;;;;5022897;28;20474;-66
2024/01/10 09:34:41;;;;;;;46.40;25.03;;;1.50;10.50;;;;;;5021621;28;20957;-66
2024/01/10 09:37:07;;;;;;;46.33;25.93;;;1.50;9.90;;;;;;5026307;28;20983;-67
2024/01/10 09:39:34;;;;;;;41.87;25.10;;;1.50;9.80;;;;;;5022561;28;20525;-66
2024/01/10 09:42:02;;;;;;;42.57;24.30;;;1.50;9.80;;;;;;5025393;28;20453;-66
2024/01/10 09:44:30;;;;;;;40.43;24.93;;;1.40;9.70;;;;;;5023535;28;20458;-66
2024/01/10 09:46:57;;;;;;;48.60;26.57;;;1.40;9.70;;;;;;5024610;28;20482;-66
2024/01/10 09:49:25;;;;;;;50.93;27.10;;;1.30;9.90;;;;;;5022790;28;20459;-66
2024/01/10 09:51:58;;;;;;;45.20;26.67;;;1.30;10.10;;;;;;5027802;28;21083;-66
2024/01/10 09:54:27;;;;;;;45.83;26.23;;;1.30;10.10;;;;;;5028251;28;20498;-66
2024/01/10 09:56:55;;;;;;;52.07;27.37;;;1.30;10.10;;;;;;5021166;28;20562;-66
2024/01/10 09:59:22;;;;;;;53.27;27.10;;;1.20;9.90;;;;;;5027423;28;20463;-66
2024/01/10 10:01:49;;;;;;;41.17;22.83;;;1.30;10.20;;;;;;5023197;28;20477;-66
2024/01/10 10:04:18;;;;;;;42.53;24.10;;;1.20;10.30;;;;;;5025077;28;20457;-66
2024/01/10 10:06:45;;;;;;;44.57;24.97;;;1.20;10.30;;;;;;5029407;28;20478;-66
2024/01/10 10:09:15;;;;;;;48.47;25.90;;;1.20;10.30;;;;;;5030170;28;20459;-67
2024/01/10 10:11:42;;;;;;;49.33;25.80;;;1.20;10.40;;;;;;5029366;28;21022;-66
2024/01/10 10:14:19;;;;;;;46.40;26.10;;;1.20;10.60;;;;;;5027652;28;20902;-66
2024/01/10 10:16:46;;;;;;;46.27;27.00;;;1.30;10.60;;;;;;5025761;28;20481;-66
2024/01/10 10:19:13;;;;;;;48.03;25.53;;;1.30;10.50;;;;;;5028990;28;20509;-66
2024/01/10 10:21:42;;;;;;;46.37;26.40;;;1.40;10.50;;;;;;5028688;28;20444;-66
2024/01/10 10:24:09;;;;;;;50.83;26.90;;;1.50;10.60;;;;;;5027950;28;20475;-66
2024/01/10 10:26:38;;;;;;;45.73;24.97;;;1.60;11.10;;;;;;5031567;28;20482;-66
2024/01/10 10:29:05;;;;;;;45.67;26.13;;;1.70;10.50;;;;;;5035094;28;20455;-66
2024/01/10 10:31:32;;;;;;;43.97;25.40;;;1.80;10.20;;;;;;5029241;28;20475;-66
2024/01/10 10:34:01;;;;;;;49.07;25.40;;;1.90;9.90;;;;;;5023304;28;20514;-66
2024/01/10 10:36:27;;;;;;;55.93;27.63;;;2.00;9.70;;;;;;5028568;28;20498;-66
2024/01/10 10:38:54;;;;;;;45.70;27.70;;;2.10;9.50;;;;;;5028330;28;20462;-66
2024/01/10 10:41:22;;;;;;;47.23;23.70;;;2.20;9.30;;;;;;5029570;28;20923;-67
2024/01/10 10:43:52;;;;;;;45.90;25.13;;;2.30;9.20;;;;;;5034292;28;20957;-66
2024/01/10 10:46:22;;;;;;;48.00;27.07;;;2.40;8.80;;;;;;5026114;28;20578;-67
2024/01/10 10:48:49;;;;;;;39.57;25.10;;;2.50;8.70;;;;;;5027452;28;21003;-66
2024/01/10 10:51:20;;;;;;;49.93;26.27;;;2.70;8.60;;;;;;5026433;28;20542;-66
2024/01/10 10:53:48;;;;;;;49.13;27.63;;;2.80;8.30;;;;;;5035876;28;20488;-66
2024/01/10 10:56:15;;;;;;;48.87;26.60;;;2.90;8.10;;;;;;5027426;28;20474;-66
2024/01/10 10:58:44;;;;;;;50.13;28.20;;;2.90;8.40;;;;;;5026095;28;20950;-65
2024/01/10 11:01:14;;;;;;;48.80;25.80;;;2.90;7.60;;;;;;5028818;28;20471;-66
2024/01/10 11:03:44;;;;;;;48.50;26.60;;;3.00;7.70;;;;;;5029434;28;20820;-67
2024/01/10 11:06:11;;;;;;;42.73;24.17;;;2.90;7.70;;;;;;5022911;28;20455;-66
2024/01/10 11:08:43;;;;;;;45.63;25.83;;;3.00;7.70;;;;;;5029539;28;20447;-66
2024/01/10 11:11:20;;;;;;;44.90;23.70;;;3.10;7.60;;;;;;5029057;28;20457;-67
2024/01/10 11:14:01;;;;;;;45.10;25.80;;;3.20;7.40;;;;;;5029078;28;20845;-67
2024/01/10 11:17:05;;;;;;;49.43;26.40;;;3.40;7.20;;;;;;5023651;28;20477;-67
2024/01/10 11:20:03;;;;;;;43.23;24.63;;;3.50;6.90;;;;;;5011932;28;20466;-66
2024/01/10 11:22:44;;;;;;;42.10;25.53;;;3.70;6.80;;;;;;5023253;28;20447;-66
2024/01/10 11:25:10;;;;;;;42.13;24.80;;;4.10;6.40;;;;;;5024261;28;20490;-66
2024/01/10 11:27:38;;;;;;;46.23;26.40;;;4.40;5.80;;;;;;5026895;28;20479;-66
2024/01/10 11:30:06;;;;;;;48.83;27.63;;;4.80;5.50;;;;;;5022366;28;20455;-67
2024/01/10 11:32:35;;;;;;;39.53;23.90;;;5.10;4.60;;;;;;5031351;28;21274;-67
2024/01/10 11:35:07;;;;;;;42.07;23.20;;;5.40;3.60;;;;;;5030852;28;20466;-66
2024/01/10 11:37:40;;;;;;;40.80;22.73;;;5.50;3.50;;;;;;5023199;28;20533;-66
2024/01/10 11:40:10;;;;;;;41.30;25.63;;;5.60;2.90;;;;;;5029323;28;20462;-66
2024/01/10 11:42:43;;;;;;;40.50;25.17;;;5.50;2.50;;;;;;5027642;28;20458;-67
2024/01/10 11:45:09;;;;;;;41.97;23.90;;;5.50;2.60;;;;;;5048932;28;20443;-67
2024/01/10 11:47:41;;;;;;;39.90;23.10;;;5.50;2.40;;;;;;5058736;28;20483;-66
2024/01/10 11:50:09;;;;;;;46.73;26.00;;;5.50;2.50;;;;;;5030989;28;20450;-66
2024/01/10 11:52:38;;;;;;;42.17;25.13;;;5.50;2.60;;;;;;5029180;28;20483;-67
2024/01/10 11:55:08;;;;;;;39.27;25.33;;;5.60;2.30;;;;;;5029491;28;20510;-66
2024/01/10 11:57:34;;;;;;;39.40;23.50;;;5.60;1.80;;;;;;5018172;28;20475;-67
2024/01/10 12:00:05;;;;;;;39.83;24.27;;;6.10;2.40;;;;;;5026427;28;20488;-67
2024/01/10 12:02:31;;;;;;;36.83;23.90;;;6.80;1.50;;;;;;5026123;28;20463;-66
2024/01/10 12:04:59;;;;;;;40.80;26.27;;;7.20;1.00;;;;;;5021429;28;20994;-66
2024/01/10 12:07:27;;;;;;;40.93;24.40;;;7.70;1.00;;;;;;5026806;28;20216;-66
2024/01/10 12:09:54;;;;;;;41.43;24.57;;;8.20;1.00;;;;;;5024543;28;20947;-66
2024/01/10 12:12:21;;;;;;;40.90;24.30;;;8.70;1.00;;;;;;5022005;28;20470;-67
2024/01/10 12:14:48;;;;;;;38.03;22.43;;;9.00;1.00;;;;;;5022664;28;20459;-67
2024/01/10 12:17:14;;;;;;;39.80;24.80;;;9.20;1.00;;;;;;5024332;28;20563;-67
2024/01/10 12:19:44;;;;;;;42.90;24.90;;;9.30;1.00;;;;;;5023346;28;20466;-67
2024/01/10 12:22:12;;;;;;;39.07;24.90;;;9.30;1.00;;;;;;5022002;28;20483;-67
2024/01/10 12:24:49;;;;;;;42.37;27.03;;;9.10;1.00;;;;;;5024455;28;20966;-66
2024/01/10 12:27:18;;;;;;;37.23;23.67;;;9.10;1.00;;;;;;5020752;28;20483;-66
2024/01/10 12:29:44;;;;;;;39.00;24.40;;;9.30;1.00;;;;;;5020856;28;20470;-67
2024/01/10 12:32:11;;;;;;;37.93;24.17;;;9.50;1.00;;;;;;5022196;28;21078;-66